Terminal Aerodrome Forecast
Issued by NWS

Current Version | Previous Version | Text Only | Print | Product List | Glossary On
Versions: 1 2 3 4 5 6 7 8 9 10 11 12 13 14 15 16 17 18 19 20 21 22 23 24 25 26 27 28 29 30 31 32 33 34 35 36 37
000
FTUS42 KCAE 252100 AAA
TAFDNL
TAF AMD
KDNL 252135Z 2522/2618 VRB04KT P6SM -RA SCT035 OVC090
     FM260200 34004KT 4SM -RA BR OVC025
     FM260600 33010KT 3SM -RA BR OVC015
     FM261400 31009KT 4SM -RA BR OVC025
     FM261700 31010KT P6SM BKN040=

USA.gov is the U.S. government's official web portal to all federal, state and local government web resources and services.